Time;durP1;ratioP1;P1;durP2;ratioP2;P2;SDS_P1;SDS_P2;PMS_P1;PMS_P2;Temp;Humidity;BMP_temperature;BMP_pressure;BME280_temperature;BME280_humidity;BME280_pressure;Samples;Min_cycle;Max_cycle;Signal;HPM_P1;HPM_P2
2023/07/03 00:00:46;;;;;;;16.33;4.40;;;16.50;99.90;;;;;;5031174;28;20438;-75
2023/07/03 00:03:13;;;;;;;15.53;5.07;;;16.50;99.90;;;;;;5031080;28;20389;-75
2023/07/03 00:05:46;;;;;;;11.30;4.10;;;16.50;99.90;;;;;;5032543;28;20176;-75
2023/07/03 00:08:14;;;;;;;19.97;4.57;;;16.50;99.90;;;;;;5031047;28;20375;-75
2023/07/03 00:10:40;;;;;;;12.60;3.70;;;16.50;99.90;;;;;;5032256;28;20057;-75
2023/07/03 00:13:06;;;;;;;12.23;4.07;;;16.50;99.90;;;;;;5032098;28;20041;-75
2023/07/03 00:15:32;;;;;;;10.07;3.70;;;16.60;99.90;;;;;;5031823;28;20132;-75
2023/07/03 00:17:57;;;;;;;13.60;4.30;;;16.60;99.90;;;;;;5032170;28;20191;-75
2023/07/03 00:20:23;;;;;;;15.17;4.40;;;16.60;99.90;;;;;;5031139;28;20060;-75
2023/07/03 00:22:51;;;;;;;12.90;4.27;;;16.60;99.90;;;;;;5032418;28;20103;-74
2023/07/03 00:25:17;;;;;;;13.00;4.00;;;16.60;99.90;;;;;;5032078;28;20045;-75
2023/07/03 00:27:43;;;;;;;13.20;4.43;;;16.60;99.90;;;;;;5014739;28;20482;-75
2023/07/03 00:30:10;;;;;;;11.63;4.23;;;16.60;99.90;;;;;;5030964;28;20099;-75
2023/07/03 00:32:36;;;;;;;13.03;4.73;;;16.60;99.90;;;;;;5032341;28;20045;-75
2023/07/03 00:35:02;;;;;;;14.97;5.27;;;16.60;99.90;;;;;;5031982;28;20459;-75
2023/07/03 00:37:29;;;;;;;13.90;4.50;;;16.50;99.90;;;;;;5031249;28;20057;-75
2023/07/03 00:39:55;;;;;;;14.87;4.57;;;16.60;99.90;;;;;;5032290;28;20054;-75
2023/07/03 00:42:24;;;;;;;13.97;3.90;;;16.60;99.90;;;;;;5031809;28;20490;-75
2023/07/03 00:44:50;;;;;;;12.67;4.40;;;16.60;99.90;;;;;;5031348;28;20057;-75
2023/07/03 00:47:16;;;;;;;10.07;3.23;;;16.60;99.90;;;;;;5014414;28;20175;-75
2023/07/03 00:49:41;;;;;;;11.27;3.77;;;16.60;99.90;;;;;;5030919;28;20045;-75
2023/07/03 00:52:10;;;;;;;13.33;3.83;;;16.60;99.90;;;;;;5014351;28;20053;-75
2023/07/03 00:54:37;;;;;;;10.03;3.43;;;16.60;99.90;;;;;;5030678;28;20520;-75
2023/07/03 00:57:04;;;;;;;13.33;3.83;;;16.60;99.90;;;;;;5030416;28;20448;-75
2023/07/03 00:59:31;;;;;;;10.67;3.90;;;16.60;99.90;;;;;;5031831;28;20055;-75
2023/07/03 01:02:08;;;;;;;11.97;3.57;;;16.60;99.90;;;;;;5032630;28;20049;-75
2023/07/03 01:04:44;;;;;;;11.97;4.07;;;16.60;99.90;;;;;;5035668;28;20111;-75
2023/07/03 01:07:14;;;;;;;15.83;4.10;;;16.60;99.90;;;;;;5034141;28;20051;-75
2023/07/03 01:09:49;;;;;;;11.93;3.83;;;16.60;99.90;;;;;;5035307;28;20053;-75
2023/07/03 01:12:16;;;;;;;12.97;3.53;;;16.60;99.90;;;;;;5035314;28;20130;-75
2023/07/03 01:14:44;;;;;;;13.67;4.47;;;16.60;99.90;;;;;;5035486;28;20093;-75
2023/07/03 01:17:11;;;;;;;14.93;3.87;;;16.60;99.90;;;;;;5034115;28;20100;-74
2023/07/03 01:19:40;;;;;;;9.40;3.10;;;16.60;99.90;;;;;;5035428;28;20140;-75
2023/07/03 01:22:36;;;;;;;11.30;3.17;;;16.60;99.90;;;;;;5034863;28;20053;-75
2023/07/03 01:25:09;;;;;;;9.03;3.40;;;16.60;99.90;;;;;;5034315;28;20151;-74
2023/07/03 01:27:39;;;;;;;11.63;3.40;;;16.60;99.90;;;;;;5035365;28;20060;-74
2023/07/03 01:30:08;;;;;;;7.87;3.00;;;16.50;99.90;;;;;;5034948;28;20041;-76
2023/07/03 01:32:35;;;;;;;15.80;3.23;;;16.50;99.90;;;;;;5035050;28;20284;-75
2023/07/03 01:35:03;;;;;;;11.50;2.50;;;16.50;99.90;;;;;;5001492;28;20053;-74
2023/07/03 01:37:33;;;;;;;10.90;2.37;;;16.40;99.90;;;;;;5034868;28;20052;-75
2023/07/03 01:40:00;;;;;;;10.67;2.87;;;16.40;99.90;;;;;;5034065;28;20089;-74
2023/07/03 01:42:29;;;;;;;9.60;2.40;;;16.40;99.90;;;;;;5033681;28;20049;-75
2023/07/03 01:44:54;;;;;;;8.53;2.80;;;16.40;99.90;;;;;;5033867;28;20053;-75
2023/07/03 01:47:20;;;;;;;8.10;2.70;;;16.40;99.90;;;;;;5033399;28;20128;-75
2023/07/03 01:49:47;;;;;;;10.60;2.30;;;16.40;99.90;;;;;;5034896;28;20096;-75
2023/07/03 01:52:37;;;;;;;8.90;2.53;;;16.30;99.90;;;;;;5017224;28;20049;-75
2023/07/03 01:55:23;;;;;;;7.87;2.23;;;16.30;99.90;;;;;;5034730;28;20402;-75
2023/07/03 01:58:13;;;;;;;6.97;2.00;;;16.30;99.90;;;;;;5033788;28;20095;-75
2023/07/03 02:00:46;;;;;;;9.93;2.27;;;16.30;99.90;;;;;;5033705;28;20049;-75
2023/07/03 02:03:24;;;;;;;13.37;2.70;;;16.30;99.90;;;;;;5033414;28;20049;-75
2023/07/03 02:05:51;;;;;;;9.90;2.07;;;16.20;99.90;;;;;;5034351;28;20482;-75
2023/07/03 02:08:20;;;;;;;7.47;2.20;;;16.20;99.90;;;;;;5033187;28;20045;-75
2023/07/03 02:10:45;;;;;;;9.47;2.77;;;16.20;99.90;;;;;;5033249;28;20805;-74
2023/07/03 02:13:11;;;;;;;8.47;3.10;;;16.10;99.90;;;;;;5032119;28;20292;-75
2023/07/03 02:15:37;;;;;;;9.67;2.30;;;16.10;99.90;;;;;;5034376;28;20127;-74
2023/07/03 02:18:03;;;;;;;7.23;1.87;;;16.10;99.90;;;;;;5033993;28;20045;-74
2023/07/03 02:20:29;;;;;;;10.47;2.80;;;16.00;99.90;;;;;;5033881;28;20108;-75
2023/07/03 02:22:56;;;;;;;14.10;2.90;;;15.90;99.90;;;;;;5034169;28;20056;-75
2023/07/03 02:25:22;;;;;;;11.97;2.43;;;15.90;99.90;;;;;;5033785;28;20586;-75
2023/07/03 02:27:50;;;;;;;7.83;2.03;;;15.90;99.90;;;;;;5034297;28;20295;-75
2023/07/03 02:30:16;;;;;;;9.83;2.63;;;15.80;99.90;;;;;;5032716;28;20057;-75
2023/07/03 02:32:42;;;;;;;12.57;2.50;;;15.80;99.90;;;;;;5033794;28;20825;-75
2023/07/03 02:35:09;;;;;;;10.03;2.60;;;15.70;99.90;;;;;;5033828;28;20300;-76
2023/07/03 02:37:36;;;;;;;11.33;2.60;;;15.70;99.90;;;;;;5016270;28;20041;-76
2023/07/03 02:40:05;;;;;;;9.63;2.00;;;15.60;99.90;;;;;;5033009;28;20288;-75
2023/07/03 02:42:30;;;;;;;9.30;2.03;;;15.60;99.90;;;;;;5033355;28;20791;-75
2023/07/03 02:44:57;;;;;;;11.80;2.60;;;15.60;99.90;;;;;;5033723;28;20280;-75
2023/07/03 02:47:23;;;;;;;12.47;2.73;;;15.50;99.90;;;;;;5032026;28;20527;-75
2023/07/03 02:49:49;;;;;;;6.93;1.80;;;15.50;99.90;;;;;;5032575;28;20375;-75
2023/07/03 02:52:14;;;;;;;10.10;2.63;;;15.40;99.90;;;;;;5033387;28;20045;-75
2023/07/03 02:54:40;;;;;;;12.83;2.43;;;15.40;99.90;;;;;;5032408;28;20052;-75
2023/07/03 02:57:06;;;;;;;14.53;2.57;;;15.40;99.90;;;;;;5033370;28;20084;-75
2023/07/03 02:59:32;;;;;;;12.37;2.70;;;15.30;99.90;;;;;;5033177;28;20045;-75
2023/07/03 03:01:58;;;;;;;10.83;2.80;;;15.30;99.90;;;;;;5033423;28;20061;-75
2023/07/03 03:04:23;;;;;;;12.67;2.50;;;15.30;99.90;;;;;;5032886;28;20280;-75
2023/07/03 03:06:49;;;;;;;15.93;2.70;;;15.30;99.90;;;;;;5015947;28;20089;-75
2023/07/03 03:09:15;;;;;;;11.77;2.63;;;15.30;99.90;;;;;;5031834;28;20045;-75
2023/07/03 03:11:40;;;;;;;12.70;2.30;;;15.30;99.90;;;;;;5032090;28;20054;-75
2023/07/03 03:14:06;;;;;;;10.03;2.33;;;15.20;99.90;;;;;;5015908;28;20045;-75
2023/07/03 03:16:33;;;;;;;8.87;2.27;;;15.20;99.90;;;;;;5032812;28;20048;-75
2023/07/03 03:18:59;;;;;;;10.40;2.43;;;15.10;99.90;;;;;;5033020;28;20053;-75
2023/07/03 03:21:25;;;;;;;7.20;1.93;;;15.10;99.90;;;;;;5032749;28;20803;-75
2023/07/03 03:23:51;;;;;;;13.70;3.37;;;15.10;99.90;;;;;;5031902;28;20284;-75
2023/07/03 03:26:16;;;;;;;10.37;2.20;;;15.00;99.90;;;;;;5031767;28;20056;-76
2023/07/03 03:28:42;;;;;;;9.07;2.03;;;15.00;99.90;;;;;;5032732;28;20038;-75
2023/07/03 03:31:08;;;;;;;14.03;2.40;;;15.00;99.90;;;;;;5031714;28;20053;-75
2023/07/03 03:33:33;;;;;;;12.20;3.23;;;15.00;99.90;;;;;;5014901;28;20151;-75
2023/07/03 03:35:59;;;;;;;10.40;2.77;;;15.00;99.90;;;;;;5033134;28;20042;-75
2023/07/03 03:38:25;;;;;;;10.77;2.07;;;15.00;99.90;;;;;;5032747;28;20477;-75
2023/07/03 03:40:56;;;;;;;13.10;2.93;;;15.00;99.90;;;;;;5032808;28;20048;-75
2023/07/03 03:43:22;;;;;;;12.73;2.93;;;15.00;99.90;;;;;;5031511;28;20111;-76
2023/07/03 03:45:59;;;;;;;9.67;2.30;;;14.90;99.90;;;;;;5031655;28;20292;-75
2023/07/03 03:48:26;;;;;;;12.33;3.10;;;14.90;99.90;;;;;;5032419;28;20045;-75
2023/07/03 03:50:52;;;;;;;8.27;2.20;;;14.90;99.90;;;;;;5032953;28;20668;-75
2023/07/03 03:53:18;;;;;;;10.00;2.33;;;14.90;99.90;;;;;;5032719;28;20272;-75
2023/07/03 03:55:51;;;;;;;13.73;2.47;;;14.90;99.90;;;;;;5032287;28;20089;-75
2023/07/03 03:58:17;;;;;;;11.60;2.63;;;14.90;99.90;;;;;;5032505;28;20272;-76
2023/07/03 04:00:44;;;;;;;11.27;2.57;;;14.90;99.90;;;;;;5032391;28;20282;-76
2023/07/03 04:03:10;;;;;;;10.07;2.40;;;14.90;99.90;;;;;;5031549;28;20281;-76
2023/07/03 04:05:36;;;;;;;9.23;2.40;;;15.00;99.90;;;;;;5032101;28;20311;-76
2023/07/03 04:08:02;;;;;;;11.33;3.10;;;15.00;99.90;;;;;;5031413;28;20391;-76
2023/07/03 04:10:28;;;;;;;11.07;3.13;;;15.00;99.90;;;;;;5031200;28;20379;-76
2023/07/03 04:12:54;;;;;;;11.40;2.60;;;15.10;99.90;;;;;;5031333;28;20639;-76
2023/07/03 04:15:22;;;;;;;11.30;2.80;;;15.10;99.90;;;;;;5031629;28;20064;-76
2023/07/03 04:17:48;;;;;;;11.40;2.33;;;15.10;99.90;;;;;;5031287;28;20116;-75
2023/07/03 04:20:14;;;;;;;10.77;2.80;;;15.10;99.90;;;;;;5015016;28;20799;-76
2023/07/03 04:22:40;;;;;;;10.77;2.47;;;15.10;99.90;;;;;;5032139;28;20045;-76
2023/07/03 04:25:07;;;;;;;12.17;2.53;;;15.10;99.90;;;;;;5032301;28;20284;-76
2023/07/03 04:27:33;;;;;;;7.97;2.30;;;15.20;99.90;;;;;;5030603;28;20407;-76
2023/07/03 04:29:59;;;;;;;10.87;2.53;;;15.20;99.90;;;;;;5031568;28;20272;-75
2023/07/03 04:32:25;;;;;;;7.60;2.67;;;15.20;99.90;;;;;;5031126;28;20655;-77
2023/07/03 04:34:51;;;;;;;11.70;2.67;;;15.20;99.90;;;;;;5032272;28;20051;-76
2023/07/03 04:37:17;;;;;;;11.03;2.80;;;15.30;99.90;;;;;;5017411;28;20374;-76
2023/07/03 04:39:43;;;;;;;15.13;2.63;;;15.30;99.90;;;;;;5034755;28;20056;-76
2023/07/03 04:42:13;;;;;;;12.00;2.90;;;15.40;99.90;;;;;;5018468;28;20295;-75
2023/07/03 04:44:41;;;;;;;9.33;2.47;;;15.50;99.90;;;;;;5036164;28;20728;-75
2023/07/03 04:47:08;;;;;;;9.90;2.60;;;15.60;99.90;;;;;;5034970;28;20292;-76
2023/07/03 04:49:34;;;;;;;9.37;3.10;;;15.70;99.90;;;;;;5035578;28;20315;-76
2023/07/03 04:51:59;;;;;;;11.00;2.73;;;15.80;99.90;;;;;;5034827;28;20335;-75
2023/07/03 04:54:28;;;;;;;10.87;2.73;;;15.80;99.90;;;;;;5034444;28;20323;-75
2023/07/03 04:56:54;;;;;;;11.00;2.53;;;16.00;99.90;;;;;;5018237;28;20107;-75
2023/07/03 04:59:20;;;;;;;11.23;2.63;;;16.00;99.90;;;;;;5035925;28;20280;-75
2023/07/03 05:01:46;;;;;;;9.83;2.03;;;16.10;99.90;;;;;;5034135;28;20371;-76
2023/07/03 05:04:12;;;;;;;13.73;2.87;;;16.20;99.90;;;;;;5035412;28;20287;-76
2023/07/03 05:06:38;;;;;;;10.27;2.50;;;16.40;99.90;;;;;;5035343;28;20084;-76
2023/07/03 05:09:05;;;;;;;12.63;2.53;;;16.60;99.90;;;;;;5034216;28;20057;-76
2023/07/03 05:11:33;;;;;;;9.87;2.47;;;16.80;99.90;;;;;;5034987;28;20279;-76
2023/07/03 05:13:58;;;;;;;15.00;2.90;;;16.90;99.90;;;;;;5034576;28;20367;-76
2023/07/03 05:16:24;;;;;;;11.07;2.53;;;16.90;99.90;;;;;;5035453;28;20056;-76
2023/07/03 05:18:50;;;;;;;11.47;2.40;;;16.90;99.90;;;;;;5033992;28;20572;-76
2023/07/03 05:21:16;;;;;;;9.33;2.50;;;16.90;99.90;;;;;;5035307;28;20053;-75
2023/07/03 05:23:42;;;;;;;13.53;2.57;;;16.70;99.90;;;;;;5034993;28;20404;-75
2023/07/03 05:26:07;;;;;;;11.00;2.83;;;16.70;99.90;;;;;;5034965;28;20041;-75
2023/07/03 05:28:36;;;;;;;11.23;2.60;;;16.70;99.90;;;;;;5033436;28;20041;-75
2023/07/03 05:31:02;;;;;;;13.10;3.73;;;16.70;99.90;;;;;;5035228;28;20084;-76
2023/07/03 05:33:29;;;;;;;11.43;2.70;;;16.90;99.90;;;;;;5017739;28;20112;-75
2023/07/03 05:35:59;;;;;;;13.67;2.57;;;17.10;99.90;;;;;;5034777;28;20050;-76
2023/07/03 05:38:24;;;;;;;12.50;2.63;;;17.40;99.90;;;;;;5033953;28;20414;-75
2023/07/03 05:40:50;;;;;;;10.67;2.50;;;17.60;99.90;;;;;;5033575;28;20041;-75
2023/07/03 05:43:17;;;;;;;9.23;2.67;;;18.00;99.90;;;;;;5033791;28;20046;-75
2023/07/03 05:45:42;;;;;;;10.93;2.53;;;18.20;99.90;;;;;;5033325;28;20051;-77
2023/07/03 05:48:08;;;;;;;6.60;1.77;;;18.20;99.90;;;;;;5034758;28;20041;-75
2023/07/03 05:50:34;;;;;;;8.17;2.30;;;18.10;99.90;;;;;;5033444;28;20518;-77
2023/07/03 05:52:59;;;;;;;8.17;2.60;;;18.00;99.90;;;;;;5033502;28;20053;-76
2023/07/03 05:55:25;;;;;;;8.27;2.50;;;17.80;99.90;;;;;;5034846;28;20046;-75
2023/07/03 05:57:51;;;;;;;8.00;1.90;;;17.70;99.90;;;;;;5033504;28;20057;-73
2023/07/03 06:00:17;;;;;;;13.67;5.40;;;17.70;99.90;;;;;;5034554;28;20489;-76
2023/07/03 06:02:44;;;;;;;8.53;2.77;;;17.90;99.90;;;;;;5034319;28;20421;-76
2023/07/03 06:05:11;;;;;;;8.97;2.40;;;18.10;99.90;;;;;;5034512;28;20046;-72
2023/07/03 06:07:38;;;;;;;7.10;1.93;;;18.30;99.90;;;;;;5032900;28;20503;-77
2023/07/03 06:10:06;;;;;;;9.43;2.10;;;18.40;99.90;;;;;;5033781;28;20049;-77
2023/07/03 06:12:31;;;;;;;7.07;2.70;;;18.40;99.90;;;;;;5033329;28;20087;-74
2023/07/03 06:14:59;;;;;;;8.77;2.07;;;18.40;99.90;;;;;;5016541;28;20084;-74
2023/07/03 06:17:27;;;;;;;8.87;1.73;;;18.60;99.90;;;;;;5034246;28;20072;-74
2023/07/03 06:19:54;;;;;;;11.90;2.57;;;19.00;99.90;;;;;;5033568;28;20080;-73
2023/07/03 06:22:20;;;;;;;8.47;2.40;;;19.30;99.90;;;;;;5034045;28;20057;-75
2023/07/03 06:24:46;;;;;;;9.43;2.00;;;20.20;99.90;;;;;;5033917;28;20501;-74
2023/07/03 06:27:12;;;;;;;8.37;2.03;;;21.80;99.90;;;;;;5034027;28;20041;-74
2023/07/03 06:29:38;;;;;;;6.67;1.87;;;22.10;99.90;;;;;;5033881;28;20049;-74
2023/07/03 06:32:04;;;;;;;11.87;2.90;;;21.60;97.70;;;;;;5032453;28;20232;-72
2023/07/03 06:34:30;;;;;;;10.07;2.20;;;21.00;99.00;;;;;;5032677;28;20045;-74
2023/07/03 06:36:56;;;;;;;8.63;2.50;;;20.60;99.40;;;;;;5033512;28;20056;-73
2023/07/03 06:39:22;;;;;;;9.63;2.33;;;20.30;99.90;;;;;;5032710;28;20049;-78
2023/07/03 06:41:48;;;;;;;41.27;5.80;;;20.40;99.90;;;;;;5032666;28;20088;-80
2023/07/03 06:44:16;;;;;;;21.20;4.53;;;21.40;99.90;;;;;;5033900;28;20049;-81
2023/07/03 06:46:43;;;;;;;12.30;2.40;;;22.00;97.00;;;;;;5016041;28;20107;-81
2023/07/03 06:49:10;;;;;;;7.30;2.97;;;21.90;94.90;;;;;;5032353;28;20041;-77
2023/07/03 06:51:36;;;;;;;24.50;4.80;;;21.50;93.30;;;;;;5033445;28;20052;-78
2023/07/03 06:54:03;;;;;;;7.70;1.93;;;21.20;92.80;;;;;;5015947;28;20175;-78
2023/07/03 06:56:29;;;;;;;7.00;1.83;;;21.10;94.10;;;;;;5032628;28;20048;-80
2023/07/03 06:58:55;;;;;;;6.37;1.70;;;21.10;94.00;;;;;;5015340;28;20049;-76
2023/07/03 07:01:23;;;;;;;6.60;1.90;;;21.00;93.00;;;;;;5032539;28;20410;-78
2023/07/03 07:03:49;;;;;;;4.60;1.70;;;20.90;90.10;;;;;;5033096;28;20486;-76
2023/07/03 07:06:25;;;;;;;6.67;1.80;;;20.50;90.00;;;;;;5032213;28;20266;-76
2023/07/03 07:08:52;;;;;;;7.10;1.97;;;20.20;91.90;;;;;;5033256;28;20037;-76
2023/07/03 07:11:21;;;;;;;5.63;2.03;;;19.90;93.70;;;;;;5032470;28;20115;-74
2023/07/03 07:13:49;;;;;;;7.53;2.10;;;19.60;97.30;;;;;;5015564;28;20042;-76
2023/07/03 07:16:17;;;;;;;9.93;2.07;;;19.20;99.90;;;;;;5032042;28;20049;-78
2023/07/03 07:18:46;;;;;;;7.80;2.00;;;18.90;99.90;;;;;;5031654;28;20076;-76
2023/07/03 07:21:12;;;;;;;12.27;2.37;;;18.70;99.90;;;;;;5032624;28;20045;-76
2023/07/03 07:23:38;;;;;;;4.53;1.77;;;18.50;99.90;;;;;;5031976;28;20051;-78
2023/07/03 07:26:03;;;;;;;8.47;1.93;;;18.50;99.90;;;;;;5015506;28;20073;-78
2023/07/03 07:28:30;;;;;;;8.60;2.50;;;18.50;99.90;;;;;;5032962;28;20124;-77
2023/07/03 07:30:56;;;;;;;9.93;2.20;;;18.60;99.90;;;;;;5032800;28;20048;-76
2023/07/03 07:33:22;;;;;;;6.43;1.70;;;18.70;99.90;;;;;;5032524;28;20049;-80
2023/07/03 07:35:49;;;;;;;8.57;2.20;;;18.80;99.90;;;;;;5014819;28;20042;-81
2023/07/03 07:38:15;;;;;;;7.50;1.93;;;19.20;99.90;;;;;;5032514;28;20072;-77
2023/07/03 07:40:41;;;;;;;12.70;6.40;;;19.50;99.90;;;;;;5032272;28;20045;-77
2023/07/03 07:43:07;;;;;;;8.17;2.30;;;19.50;99.90;;;;;;5031995;28;20076;-76
2023/07/03 07:45:33;;;;;;;9.40;2.30;;;19.80;99.90;;;;;;5032681;28;20136;-74
2023/07/03 07:48:00;;;;;;;9.03;2.60;;;20.00;99.90;;;;;;5032256;28;20046;-73
2023/07/03 07:50:27;;;;;;;9.20;2.63;;;20.00;99.90;;;;;;5031901;28;20041;-74
2023/07/03 07:52:54;;;;;;;9.37;4.07;;;19.90;99.90;;;;;;5032479;28;20051;-81
2023/07/03 07:55:20;;;;;;;9.50;2.27;;;20.10;99.90;;;;;;5032782;28;20045;-69
2023/07/03 07:57:45;;;;;;;6.73;2.07;;;20.50;99.90;;;;;;5020909;28;20299;-75
2023/07/03 08:00:12;;;;;;;7.30;1.70;;;21.40;99.90;;;;;;5023603;28;20084;-71
2023/07/03 08:02:37;;;;;;;7.17;1.93;;;21.90;96.70;;;;;;5031138;28;20396;-77
2023/07/03 08:05:04;;;;;;;7.03;2.00;;;21.90;94.60;;;;;;5031707;28;20046;-79
2023/07/03 08:07:30;;;;;;;8.40;1.93;;;22.00;94.40;;;;;;5031286;28;20081;-76
2023/07/03 08:09:56;;;;;;;10.23;2.10;;;22.60;95.10;;;;;;5030535;28;20081;-80
2023/07/03 08:12:22;;;;;;;10.27;2.67;;;23.20;91.20;;;;;;5035035;28;20049;-82
2023/07/03 08:14:48;;;;;;;8.20;2.00;;;23.50;87.50;;;;;;5035040;28;20049;-82
2023/07/03 08:17:13;;;;;;;5.83;1.80;;;23.90;73.00;;;;;;5034954;28;20053;-83
2023/07/03 08:19:39;;;;;;;10.00;2.60;;;23.70;69.80;;;;;;5034846;28;20060;-85
2023/07/03 08:22:05;;;;;;;10.30;2.10;;;23.50;69.80;;;;;;5018366;28;20053;-83
2023/07/03 08:24:31;;;;;;;9.73;2.30;;;23.50;69.80;;;;;;5035017;28;20132;-84
2023/07/03 08:26:56;;;;;;;9.67;2.10;;;23.30;69.40;;;;;;5018486;28;20159;-83
2023/07/03 08:29:22;;;;;;;9.30;2.67;;;22.90;70.00;;;;;;5035246;28;20486;-83
2023/07/03 08:31:48;;;;;;;6.20;1.70;;;22.40;73.80;;;;;;5036292;28;20045;-84
2023/07/03 08:34:15;;;;;;;6.20;1.60;;;21.90;75.60;;;;;;5036297;28;20139;-84
2023/07/03 08:36:40;;;;;;;11.03;1.90;;;21.40;80.40;;;;;;5035272;28;20076;-83
2023/07/03 08:39:06;;;;;;;9.83;2.40;;;21.00;88.50;;;;;;5035626;28;20498;-86
2023/07/03 08:41:41;;;;;;;7.40;2.73;;;20.70;90.80;;;;;;5035071;28;20060;-82
2023/07/03 08:44:08;;;;;;;7.57;2.10;;;20.60;93.40;;;;;;5034596;28;20053;-81
2023/07/03 08:46:36;;;;;;;8.30;1.70;;;20.50;97.00;;;;;;5035637;28;20502;-79
2023/07/03 08:49:05;;;;;;;7.40;2.10;;;20.30;97.60;;;;;;5035753;28;20064;-83
2023/07/03 08:51:36;;;;;;;8.23;2.10;;;20.20;98.50;;;;;;5035076;28;20102;-84
2023/07/03 08:54:19;;;;;;;7.50;2.07;;;20.10;99.90;;;;;;5035509;28;20042;-82
2023/07/03 08:56:47;;;;;;;7.80;1.70;;;20.20;99.90;;;;;;5034552;28;20061;-80
2023/07/03 08:59:13;;;;;;;10.07;2.40;;;20.20;98.50;;;;;;5032007;28;20045;-79
2023/07/03 09:01:45;;;;;;;5.60;1.97;;;20.40;97.10;;;;;;5001308;28;20052;-79
2023/07/03 09:04:37;;;;;;;7.83;2.10;;;20.70;95.20;;;;;;5035213;28;20053;-80
2023/07/03 09:07:09;;;;;;;6.20;1.80;;;20.80;95.40;;;;;;5034930;28;20131;-76
2023/07/03 09:09:59;;;;;;;6.90;1.90;;;20.80;94.30;;;;;;5034514;28;20057;-75
2023/07/03 09:12:29;;;;;;;6.97;2.13;;;20.70;93.20;;;;;;5033696;28;20059;-75
2023/07/03 09:15:01;;;;;;;6.67;1.80;;;20.50;94.70;;;;;;5035065;28;20045;-75
2023/07/03 09:17:27;;;;;;;5.33;1.80;;;20.30;95.30;;;;;;5035281;28;20056;-76
2023/07/03 09:19:56;;;;;;;4.13;1.60;;;20.20;97.00;;;;;;5035099;28;20397;-76
2023/07/03 09:22:42;;;;;;;7.67;2.07;;;20.00;98.10;;;;;;5045220;28;20457;-78
2023/07/03 09:25:14;;;;;;;5.60;1.60;;;19.80;97.90;;;;;;5033204;28;20053;-78
2023/07/03 09:27:41;;;;;;;5.43;1.93;;;19.70;97.20;;;;;;5033902;28;20053;-76
2023/07/03 09:30:13;;;;;;;7.27;2.37;;;19.70;97.20;;;;;;5050396;28;20184;-76
2023/07/03 09:32:39;;;;;;;4.33;1.23;;;19.50;98.00;;;;;;5033933;28;20041;-77
2023/07/03 09:35:20;;;;;;;5.73;1.73;;;19.40;98.90;;;;;;5050335;28;20350;-81
2023/07/03 09:38:14;;;;;;;5.87;1.43;;;19.20;99.80;;;;;;5034985;28;20183;-78
2023/07/03 09:40:44;;;;;;;6.70;1.97;;;19.00;99.90;;;;;;5034226;28;20477;-79
2023/07/03 09:43:17;;;;;;;5.20;1.70;;;18.80;99.90;;;;;;5033765;28;20053;-79
2023/07/03 09:45:44;;;;;;;5.30;1.70;;;18.60;99.90;;;;;;5050048;28;20049;-73
2023/07/03 09:48:24;;;;;;;5.57;1.57;;;18.40;99.90;;;;;;5049725;28;20060;-76
2023/07/03 09:50:50;;;;;;;6.00;1.70;;;18.20;99.90;;;;;;5031563;28;20053;-83
2023/07/03 09:53:23;;;;;;;8.37;1.60;;;18.10;99.90;;;;;;5034041;28;20064;-77
2023/07/03 09:55:53;;;;;;;8.90;2.50;;;18.00;99.90;;;;;;5033197;28;20053;-77
2023/07/03 09:58:19;;;;;;;7.70;2.30;;;18.10;99.90;;;;;;5032899;28;20052;-70
2023/07/03 10:00:56;;;;;;;11.90;2.73;;;18.30;99.90;;;;;;5034021;28;20041;-70
2023/07/03 10:03:31;;;;;;;7.77;2.20;;;18.60;99.90;;;;;;5032919;28;20045;-70
2023/07/03 10:06:03;;;;;;;;;;;18.80;99.90;;;;;;5033365;28;20041;-70
2023/07/03 10:08:29;;;;;;;5.93;2.10;;;19.10;99.90;;;;;;5034131;28;20402;-70
2023/07/03 10:10:59;;;;;;;6.97;2.10;;;19.20;99.90;;;;;;5034134;28;20148;-70
2023/07/03 10:13:29;;;;;;;9.90;2.30;;;19.30;99.90;;;;;;5033923;28;20061;-70
2023/07/03 10:15:56;;;;;;;8.80;2.27;;;19.20;99.90;;;;;;5033843;28;20052;-69
2023/07/03 10:18:27;;;;;;;6.90;2.13;;;19.20;99.90;;;;;;5033308;28;20105;-73
2023/07/03 10:20:54;;;;;;;7.60;2.10;;;19.10;99.90;;;;;;5033010;28;20053;-70
2023/07/03 10:23:32;;;;;;;4.90;1.60;;;19.00;99.90;;;;;;5033170;28;20056;-72
2023/07/03 10:26:29;;;;;;;8.33;2.57;;;18.90;99.90;;;;;;5034291;28;20041;-69
2023/07/03 10:29:22;;;;;;;6.63;1.70;;;18.90;99.90;;;;;;5034017;28;20049;-73
2023/07/03 10:31:55;;;;;;;6.47;1.83;;;18.90;99.90;;;;;;5025259;28;20557;-78
2023/07/03 10:34:30;;;;;;;5.67;1.37;;;19.00;99.90;;;;;;5033033;28;21061;-81
2023/07/03 10:37:02;;;;;;;5.93;1.63;;;19.20;99.90;;;;;;5033299;28;20049;-78
2023/07/03 10:39:41;;;;;;;6.50;1.83;;;19.40;99.90;;;;;;5032723;28;20052;-79
2023/07/03 10:42:17;;;;;;;9.50;1.80;;;19.60;99.90;;;;;;5032746;28;20053;-76
2023/07/03 10:44:43;;;;;;;7.30;2.00;;;19.70;99.90;;;;;;5033963;28;20084;-73
2023/07/03 10:47:18;;;;;;;5.03;1.77;;;19.80;99.90;;;;;;5032082;28;20110;-70
2023/07/03 10:49:45;;;;;;;5.50;1.33;;;20.10;99.90;;;;;;5033870;28;20132;-71
2023/07/03 10:52:37;;;;;;;5.80;1.60;;;20.20;99.90;;;;;;5033450;28;20053;-71
2023/07/03 10:55:10;;;;;;;7.97;1.70;;;20.30;99.90;;;;;;5032827;28;20053;-80
2023/07/03 10:57:57;;;;;;;6.70;1.57;;;20.30;99.90;;;;;;5033415;28;20519;-77
2023/07/03 11:00:52;;;;;;;6.40;1.60;;;20.30;99.40;;;;;;5032501;28;20099;-79
2023/07/03 11:04:00;;;;;;;5.88;1.58;;;20.30;99.30;;;;;;4991357;28;20053;-78
2023/07/03 11:06:34;;;;;;;5.03;1.53;;;20.40;98.70;;;;;;4987504;28;20057;-77
2023/07/03 11:09:12;;;;;;;4.70;1.75;;;20.40;98.10;;;;;;5015828;28;20099;-80
2023/07/03 11:11:45;;;;;;;5.77;1.60;;;20.50;97.30;;;;;;5016057;28;20049;-78
2023/07/03 11:14:33;;;;;;;4.63;1.60;;;20.50;97.50;;;;;;5015434;28;20049;-78
2023/07/03 11:17:15;;;;;;;5.77;1.67;;;20.40;96.80;;;;;;5016022;28;20470;-77
2023/07/03 11:20:05;;;;;;;7.20;2.00;;;20.10;96.30;;;;;;5032918;28;20065;-79
2023/07/03 11:23:01;;;;;;;8.07;1.70;;;19.90;96.50;;;;;;5015433;28;20057;-78
2023/07/03 11:25:42;;;;;;;4.50;1.47;;;19.60;97.00;;;;;;5021759;28;20069;-79
2023/07/03 11:28:23;;;;;;;5.43;1.60;;;19.50;97.20;;;;;;5015248;28;20508;-82
2023/07/03 11:30:50;;;;;;;6.90;1.60;;;19.60;97.40;;;;;;5031840;28;20100;-79
2023/07/03 11:33:16;;;;;;;6.80;1.90;;;19.60;97.30;;;;;;5032863;28;20045;-79
2023/07/03 11:35:53;;;;;;;6.93;1.87;;;19.80;97.70;;;;;;5031948;28;20052;-77
2023/07/03 11:38:19;;;;;;;5.97;1.60;;;19.90;96.90;;;;;;5032251;28;20053;-81
2023/07/03 11:40:54;;;;;;;4.87;1.50;;;20.00;95.40;;;;;;5015430;28;20053;-77
2023/07/03 11:43:29;;;;;;;6.27;1.53;;;20.10;94.00;;;;;;5014646;28;20056;-75
2023/07/03 11:45:57;;;;;;;6.63;1.70;;;20.00;93.80;;;;;;5032833;28;20116;-77
2023/07/03 11:48:40;;;;;;;6.73;1.83;;;19.90;93.90;;;;;;5031221;28;20045;-80
2023/07/03 11:51:14;;;;;;;6.77;1.80;;;19.80;93.40;;;;;;5032789;28;20485;-78
2023/07/03 11:53:44;;;;;;;;;;;19.70;94.00;;;;;;5033232;28;20045;-77
2023/07/03 11:56:32;;;;;;;6.40;2.00;;;19.70;95.40;;;;;;5031825;28;20436;-75
2023/07/03 11:59:11;;;;;;;7.03;1.83;;;19.70;96.10;;;;;;5015275;28;20054;-74
2023/07/03 12:01:37;;;;;;;6.17;2.00;;;19.70;95.80;;;;;;5032436;28;20046;-74
2023/07/03 12:04:06;;;;;;;7.87;1.77;;;19.70;95.50;;;;;;5031303;28;20114;-76
2023/07/03 12:06:41;;;;;;;7.43;2.07;;;19.60;96.40;;;;;;5032166;28;20692;-72
2023/07/03 12:09:19;;;;;;;6.87;1.93;;;19.60;96.30;;;;;;5032331;28;20482;-71
2023/07/03 12:11:59;;;;;;;6.73;2.20;;;19.40;95.80;;;;;;5032181;28;20536;-75
2023/07/03 12:14:44;;;;;;;7.53;1.90;;;19.30;95.70;;;;;;5030732;28;20060;-75
2023/07/03 12:17:30;;;;;;;7.78;2.10;;;19.20;95.50;;;;;;5032699;28;20130;-75
2023/07/03 12:20:07;;;;;;;6.87;2.23;;;19.10;96.50;;;;;;5031626;28;20056;-75
2023/07/03 12:22:45;;;;;;;7.27;1.93;;;19.10;96.90;;;;;;5032403;28;20115;-75
2023/07/03 12:25:17;;;;;;;5.20;1.73;;;19.00;97.20;;;;;;5032421;28;20049;-75
2023/07/03 12:27:43;;;;;;;7.80;1.80;;;19.00;97.30;;;;;;5032674;28;20045;-75
2023/07/03 12:30:11;;;;;;;6.83;1.73;;;19.00;97.20;;;;;;5032581;28;20133;-75
2023/07/03 12:32:37;;;;;;;7.40;1.70;;;19.00;97.60;;;;;;5032252;28;20054;-75
2023/07/03 12:35:13;;;;;;;5.40;1.67;;;19.00;97.60;;;;;;5032720;28;20099;-75
2023/07/03 12:37:43;;;;;;;6.37;1.77;;;19.10;96.90;;;;;;5031111;28;20046;-75
2023/07/03 12:40:13;;;;;;;5.77;1.77;;;19.10;97.10;;;;;;5032515;28;20045;-75
2023/07/03 12:42:39;;;;;;;6.77;1.83;;;19.00;97.40;;;;;;5032373;28;20133;-75
2023/07/03 12:45:17;;;;;;;6.43;2.17;;;19.00;96.80;;;;;;5031207;28;20077;-74
2023/07/03 12:47:43;;;;;;;7.33;1.80;;;19.00;96.50;;;;;;5031267;28;20061;-75
2023/07/03 12:50:15;;;;;;;7.50;2.20;;;18.90;96.20;;;;;;5032306;28;20053;-75
2023/07/03 12:52:40;;;;;;;8.07;1.77;;;18.90;96.40;;;;;;5032207;28;20049;-75
2023/07/03 12:55:07;;;;;;;5.00;1.67;;;18.90;96.00;;;;;;5031171;28;20045;-75